sensor_id;sensor_type;location;lat;lon;timestamp;P1;durP1;ratioP1;P2;durP2;ratioP2
65071;SDS011;51663;52.310;17.016;2022-10-16T00:01:59;21.63;;;18.20;;
65071;SDS011;51663;52.310;17.016;2022-10-16T00:05:02;25.77;;;18.02;;
65071;SDS011;51663;52.310;17.016;2022-10-16T00:08:04;25.75;;;18.40;;
65071;SDS011;51663;52.310;17.016;2022-10-16T00:11:10;23.98;;;17.75;;
65071;SDS011;51663;52.310;17.016;2022-10-16T00:14:15;23.52;;;18.90;;
65071;SDS011;51663;52.310;17.016;2022-10-16T00:17:17;22.63;;;17.17;;
65071;SDS011;51663;52.310;17.016;2022-10-16T00:20:19;19.55;;;15.95;;
65071;SDS011;51663;52.310;17.016;2022-10-16T00:23:21;19.85;;;16.13;;
65071;SDS011;51663;52.310;17.016;2022-10-16T00:26:23;18.65;;;15.43;;
65071;SDS011;51663;52.310;17.016;2022-10-16T00:29:26;18.50;;;15.18;;
65071;SDS011;51663;52.310;17.016;2022-10-16T00:32:28;17.98;;;15.23;;
65071;SDS011;51663;52.310;17.016;2022-10-16T00:35:31;17.98;;;15.23;;
65071;SDS011;51663;52.310;17.016;2022-10-16T00:38:33;19.30;;;15.85;;
65071;SDS011;51663;52.310;17.016;2022-10-16T00:41:35;20.40;;;16.45;;
65071;SDS011;51663;52.310;17.016;2022-10-16T00:44:50;16.95;;;15.00;;
65071;SDS011;51663;52.310;17.016;2022-10-16T00:47:59;20.35;;;15.88;;
65071;SDS011;51663;52.310;17.016;2022-10-16T00:51:02;19.67;;;16.63;;
65071;SDS011;51663;52.310;17.016;2022-10-16T00:54:13;19.35;;;15.35;;
65071;SDS011;51663;52.310;17.016;2022-10-16T00:57:22;18.65;;;15.25;;
65071;SDS011;51663;52.310;17.016;2022-10-16T01:00:25;16.52;;;14.45;;
65071;SDS011;51663;52.310;17.016;2022-10-16T01:03:32;16.58;;;14.75;;
65071;SDS011;51663;52.310;17.016;2022-10-16T01:13:12;16.48;;;14.32;;
65071;SDS011;51663;52.310;17.016;2022-10-16T01:19:38;17.45;;;15.30;;
65071;SDS011;51663;52.310;17.016;2022-10-16T01:22:44;16.83;;;14.68;;
65071;SDS011;51663;52.310;17.016;2022-10-16T01:29:15;16.05;;;14.35;;
65071;SDS011;51663;52.310;17.016;2022-10-16T01:32:30;17.90;;;15.15;;
65071;SDS011;51663;52.310;17.016;2022-10-16T01:35:48;16.42;;;14.52;;
65071;SDS011;51663;52.310;17.016;2022-10-16T01:38:58;17.63;;;15.20;;
65071;SDS011;51663;52.310;17.016;2022-10-16T01:42:06;19.48;;;14.95;;
65071;SDS011;51663;52.310;17.016;2022-10-16T01:45:13;16.35;;;14.63;;
65071;SDS011;51663;52.310;17.016;2022-10-16T01:48:19;18.55;;;16.23;;
65071;SDS011;51663;52.310;17.016;2022-10-16T01:51:24;19.30;;;15.75;;
65071;SDS011;51663;52.310;17.016;2022-10-16T01:54:27;19.30;;;15.90;;
65071;SDS011;51663;52.310;17.016;2022-10-16T01:57:32;17.83;;;15.93;;
65071;SDS011;51663;52.310;17.016;2022-10-16T02:00:38;19.73;;;15.35;;
65071;SDS011;51663;52.310;17.016;2022-10-16T02:03:43;17.63;;;15.65;;
65071;SDS011;51663;52.310;17.016;2022-10-16T02:06:47;19.45;;;15.43;;
65071;SDS011;51663;52.310;17.016;2022-10-16T02:09:49;19.20;;;15.18;;
65071;SDS011;51663;52.310;17.016;2022-10-16T02:12:56;18.05;;;16.13;;
65071;SDS011;51663;52.310;17.016;2022-10-16T02:16:13;18.25;;;15.90;;
65071;SDS011;51663;52.310;17.016;2022-10-16T02:19:16;21.02;;;16.15;;
65071;SDS011;51663;52.310;17.016;2022-10-16T02:22:28;18.77;;;15.68;;
65071;SDS011;51663;52.310;17.016;2022-10-16T02:25:41;18.40;;;15.55;;
65071;SDS011;51663;52.310;17.016;2022-10-16T02:28:48;18.52;;;15.98;;
65071;SDS011;51663;52.310;17.016;2022-10-16T02:32:00;18.83;;;16.42;;
65071;SDS011;51663;52.310;17.016;2022-10-16T02:35:05;19.40;;;16.05;;
65071;SDS011;51663;52.310;17.016;2022-10-16T02:38:09;19.40;;;16.23;;
65071;SDS011;51663;52.310;17.016;2022-10-16T02:41:13;20.58;;;16.85;;
65071;SDS011;51663;52.310;17.016;2022-10-16T02:44:16;23.67;;;18.17;;
65071;SDS011;51663;52.310;17.016;2022-10-16T02:47:17;20.98;;;17.63;;
65071;SDS011;51663;52.310;17.016;2022-10-16T02:50:20;18.60;;;15.73;;
65071;SDS011;51663;52.310;17.016;2022-10-16T02:53:22;19.52;;;16.08;;
65071;SDS011;51663;52.310;17.016;2022-10-16T02:56:24;19.10;;;16.45;;
65071;SDS011;51663;52.310;17.016;2022-10-16T02:59:26;20.52;;;16.40;;
65071;SDS011;51663;52.310;17.016;2022-10-16T03:02:28;20.00;;;16.63;;
65071;SDS011;51663;52.310;17.016;2022-10-16T03:05:30;19.88;;;16.63;;
65071;SDS011;51663;52.310;17.016;2022-10-16T03:08:32;21.80;;;17.77;;
65071;SDS011;51663;52.310;17.016;2022-10-16T03:11:34;23.00;;;16.65;;
65071;SDS011;51663;52.310;17.016;2022-10-16T03:14:36;19.75;;;17.15;;
65071;SDS011;51663;52.310;17.016;2022-10-16T03:17:38;20.63;;;17.08;;
65071;SDS011;51663;52.310;17.016;2022-10-16T03:20:40;17.90;;;15.63;;
65071;SDS011;51663;52.310;17.016;2022-10-16T03:23:43;18.65;;;15.45;;
65071;SDS011;51663;52.310;17.016;2022-10-16T03:26:46;18.45;;;16.23;;
65071;SDS011;51663;52.310;17.016;2022-10-16T03:29:47;17.20;;;15.38;;
65071;SDS011;51663;52.310;17.016;2022-10-16T03:32:50;19.10;;;16.38;;
65071;SDS011;51663;52.310;17.016;2022-10-16T03:35:55;20.88;;;17.70;;
65071;SDS011;51663;52.310;17.016;2022-10-16T03:38:57;18.33;;;16.05;;
65071;SDS011;51663;52.310;17.016;2022-10-16T03:41:59;19.30;;;16.58;;
65071;SDS011;51663;52.310;17.016;2022-10-16T03:45:01;21.02;;;16.88;;
65071;SDS011;51663;52.310;17.016;2022-10-16T03:48:03;20.35;;;16.92;;
65071;SDS011;51663;52.310;17.016;2022-10-16T03:51:06;17.23;;;14.90;;
65071;SDS011;51663;52.310;17.016;2022-10-16T03:54:09;19.42;;;16.55;;
65071;SDS011;51663;52.310;17.016;2022-10-16T03:57:11;19.35;;;17.10;;
65071;SDS011;51663;52.310;17.016;2022-10-16T04:00:13;20.48;;;17.13;;
65071;SDS011;51663;52.310;17.016;2022-10-16T04:03:15;19.65;;;17.05;;
65071;SDS011;51663;52.310;17.016;2022-10-16T04:06:18;17.73;;;15.52;;
65071;SDS011;51663;52.310;17.016;2022-10-16T04:09:20;18.70;;;16.00;;
65071;SDS011;51663;52.310;17.016;2022-10-16T04:12:22;18.30;;;16.30;;
65071;SDS011;51663;52.310;17.016;2022-10-16T04:15:24;19.30;;;16.35;;
65071;SDS011;51663;52.310;17.016;2022-10-16T04:18:27;18.40;;;15.93;;
65071;SDS011;51663;52.310;17.016;2022-10-16T04:21:29;17.90;;;16.00;;
65071;SDS011;51663;52.310;17.016;2022-10-16T04:24:31;18.00;;;15.85;;
65071;SDS011;51663;52.310;17.016;2022-10-16T04:27:33;17.17;;;15.38;;
65071;SDS011;51663;52.310;17.016;2022-10-16T04:30:37;17.80;;;15.77;;
65071;SDS011;51663;52.310;17.016;2022-10-16T04:33:42;18.85;;;16.02;;
65071;SDS011;51663;52.310;17.016;2022-10-16T04:36:46;18.40;;;15.23;;
65071;SDS011;51663;52.310;17.016;2022-10-16T04:39:50;18.30;;;14.95;;
65071;SDS011;51663;52.310;17.016;2022-10-16T04:42:52;17.90;;;15.60;;
65071;SDS011;51663;52.310;17.016;2022-10-16T04:45:54;17.95;;;16.05;;
65071;SDS011;51663;52.310;17.016;2022-10-16T04:48:56;19.52;;;15.45;;
65071;SDS011;51663;52.310;17.016;2022-10-16T04:51:58;17.20;;;15.05;;
65071;SDS011;51663;52.310;17.016;2022-10-16T04:55:00;19.88;;;15.68;;
65071;SDS011;51663;52.310;17.016;2022-10-16T04:58:04;15.60;;;13.98;;
65071;SDS011;51663;52.310;17.016;2022-10-16T05:01:06;15.80;;;14.13;;
65071;SDS011;51663;52.310;17.016;2022-10-16T05:04:09;15.88;;;14.27;;
65071;SDS011;51663;52.310;17.016;2022-10-16T05:07:11;16.48;;;14.00;;
65071;SDS011;51663;52.310;17.016;2022-10-16T05:10:13;16.02;;;14.38;;
65071;SDS011;51663;52.310;17.016;2022-10-16T05:13:15;16.73;;;14.48;;
65071;SDS011;51663;52.310;17.016;2022-10-16T05:16:17;15.23;;;13.55;;
65071;SDS011;51663;52.310;17.016;2022-10-16T05:19:20;15.18;;;13.63;;
65071;SDS011;51663;52.310;17.016;2022-10-16T05:22:29;14.40;;;13.00;;
65071;SDS011;51663;52.310;17.016;2022-10-16T05:25:31;14.82;;;13.43;;
65071;SDS011;51663;52.310;17.016;2022-10-16T05:28:33;15.32;;;13.77;;
65071;SDS011;51663;52.310;17.016;2022-10-16T05:31:35;15.20;;;13.57;;
65071;SDS011;51663;52.310;17.016;2022-10-16T05:34:37;14.65;;;13.15;;
65071;SDS011;51663;52.310;17.016;2022-10-16T05:37:39;15.18;;;13.57;;
65071;SDS011;51663;52.310;17.016;2022-10-16T05:40:41;15.40;;;13.77;;
65071;SDS011;51663;52.310;17.016;2022-10-16T05:43:43;14.52;;;13.15;;
65071;SDS011;51663;52.310;17.016;2022-10-16T05:46:46;14.30;;;12.80;;
65071;SDS011;51663;52.310;17.016;2022-10-16T05:49:48;14.15;;;12.70;;
65071;SDS011;51663;52.310;17.016;2022-10-16T05:52:50;14.43;;;12.98;;
65071;SDS011;51663;52.310;17.016;2022-10-16T05:55:53;14.85;;;13.38;;
65071;SDS011;51663;52.310;17.016;2022-10-16T05:58:55;14.32;;;12.82;;
65071;SDS011;51663;52.310;17.016;2022-10-16T06:01:57;14.80;;;13.35;;
65071;SDS011;51663;52.310;17.016;2022-10-16T06:04:59;14.30;;;12.90;;
65071;SDS011;51663;52.310;17.016;2022-10-16T06:08:01;13.93;;;12.52;;
65071;SDS011;51663;52.310;17.016;2022-10-16T06:11:04;14.30;;;12.90;;
65071;SDS011;51663;52.310;17.016;2022-10-16T06:14:08;14.68;;;13.20;;
65071;SDS011;51663;52.310;17.016;2022-10-16T06:17:10;14.70;;;13.23;;
65071;SDS011;51663;52.310;17.016;2022-10-16T06:20:12;13.90;;;12.48;;
65071;SDS011;51663;52.310;17.016;2022-10-16T06:23:14;15.13;;;13.63;;
65071;SDS011;51663;52.310;17.016;2022-10-16T06:26:17;14.88;;;13.38;;
65071;SDS011;51663;52.310;17.016;2022-10-16T06:29:21;14.93;;;13.38;;
65071;SDS011;51663;52.310;17.016;2022-10-16T06:32:23;14.70;;;13.18;;
65071;SDS011;51663;52.310;17.016;2022-10-16T06:35:25;15.57;;;13.65;;
65071;SDS011;51663;52.310;17.016;2022-10-16T06:38:27;15.15;;;13.65;;
65071;SDS011;51663;52.310;17.016;2022-10-16T06:41:29;15.55;;;13.52;;
65071;SDS011;51663;52.310;17.016;2022-10-16T06:44:32;14.75;;;13.25;;
65071;SDS011;51663;52.310;17.016;2022-10-16T06:47:34;14.90;;;13.55;;
65071;SDS011;51663;52.310;17.016;2022-10-16T06:50:37;15.20;;;13.60;;
65071;SDS011;51663;52.310;17.016;2022-10-16T06:53:40;15.05;;;13.55;;
65071;SDS011;51663;52.310;17.016;2022-10-16T06:57:04;14.52;;;13.13;;
65071;SDS011;51663;52.310;17.016;2022-10-16T07:00:06;15.45;;;13.98;;
65071;SDS011;51663;52.310;17.016;2022-10-16T07:03:08;13.73;;;12.32;;
65071;SDS011;51663;52.310;17.016;2022-10-16T07:06:11;14.85;;;13.43;;
65071;SDS011;51663;52.310;17.016;2022-10-16T07:09:14;13.35;;;12.00;;
65071;SDS011;51663;52.310;17.016;2022-10-16T07:12:16;13.18;;;11.98;;
65071;SDS011;51663;52.310;17.016;2022-10-16T07:15:19;13.98;;;12.50;;
65071;SDS011;51663;52.310;17.016;2022-10-16T07:18:21;13.63;;;12.30;;
65071;SDS011;51663;52.310;17.016;2022-10-16T07:21:28;12.93;;;11.60;;
65071;SDS011;51663;52.310;17.016;2022-10-16T07:24:35;13.38;;;12.15;;
65071;SDS011;51663;52.310;17.016;2022-10-16T07:27:37;12.85;;;11.48;;
65071;SDS011;51663;52.310;17.016;2022-10-16T07:30:42;12.02;;;10.98;;
65071;SDS011;51663;52.310;17.016;2022-10-16T07:33:44;12.15;;;10.52;;
65071;SDS011;51663;52.310;17.016;2022-10-16T07:36:51;11.40;;;10.38;;
65071;SDS011;51663;52.310;17.016;2022-10-16T07:39:53;11.52;;;10.43;;
65071;SDS011;51663;52.310;17.016;2022-10-16T07:42:55;12.55;;;11.25;;
65071;SDS011;51663;52.310;17.016;2022-10-16T07:45:57;10.63;;;9.52;;
65071;SDS011;51663;52.310;17.016;2022-10-16T07:49:06;10.98;;;9.88;;
65071;SDS011;51663;52.310;17.016;2022-10-16T07:52:08;10.98;;;9.93;;
65071;SDS011;51663;52.310;17.016;2022-10-16T07:55:10;10.98;;;9.98;;
65071;SDS011;51663;52.310;17.016;2022-10-16T07:58:12;11.00;;;10.00;;
65071;SDS011;51663;52.310;17.016;2022-10-16T08:01:14;9.98;;;8.95;;
65071;SDS011;51663;52.310;17.016;2022-10-16T08:04:17;10.95;;;9.57;;
65071;SDS011;51663;52.310;17.016;2022-10-16T08:07:19;10.93;;;10.02;;
65071;SDS011;51663;52.310;17.016;2022-10-16T08:10:22;10.50;;;9.40;;
65071;SDS011;51663;52.310;17.016;2022-10-16T08:13:26;9.20;;;8.48;;
65071;SDS011;51663;52.310;17.016;2022-10-16T08:16:28;8.40;;;7.70;;
65071;SDS011;51663;52.310;17.016;2022-10-16T08:19:30;8.02;;;7.32;;
65071;SDS011;51663;52.310;17.016;2022-10-16T08:22:35;8.77;;;7.97;;
65071;SDS011;51663;52.310;17.016;2022-10-16T08:25:37;7.95;;;7.32;;
65071;SDS011;51663;52.310;17.016;2022-10-16T08:28:40;7.57;;;6.68;;
65071;SDS011;51663;52.310;17.016;2022-10-16T08:31:43;8.07;;;7.45;;
65071;SDS011;51663;52.310;17.016;2022-10-16T08:34:45;7.38;;;6.75;;
65071;SDS011;51663;52.310;17.016;2022-10-16T08:37:47;7.13;;;6.53;;
65071;SDS011;51663;52.310;17.016;2022-10-16T08:40:49;7.75;;;7.15;;
65071;SDS011;51663;52.310;17.016;2022-10-16T08:47:26;6.55;;;6.07;;
65071;SDS011;51663;52.310;17.016;2022-10-16T08:50:53;7.22;;;6.72;;
65071;SDS011;51663;52.310;17.016;2022-10-16T08:54:03;8.20;;;7.55;;
65071;SDS011;51663;52.310;17.016;2022-10-16T08:57:17;7.57;;;6.95;;
65071;SDS011;51663;52.310;17.016;2022-10-16T09:00:25;7.00;;;6.40;;
65071;SDS011;51663;52.310;17.016;2022-10-16T09:03:40;7.38;;;6.80;;
65071;SDS011;51663;52.310;17.016;2022-10-16T09:06:56;7.35;;;6.68;;
65071;SDS011;51663;52.310;17.016;2022-10-16T09:10:43;7.45;;;6.95;;
65071;SDS011;51663;52.310;17.016;2022-10-16T09:13:58;7.25;;;6.65;;
65071;SDS011;51663;52.310;17.016;2022-10-16T09:17:25;6.38;;;5.78;;
65071;SDS011;51663;52.310;17.016;2022-10-16T09:27:35;6.13;;;5.72;;
65071;SDS011;51663;52.310;17.016;2022-10-16T09:30:42;6.07;;;5.50;;
65071;SDS011;51663;52.310;17.016;2022-10-16T09:33:53;6.78;;;6.28;;
65071;SDS011;51663;52.310;17.016;2022-10-16T09:37:12;6.20;;;5.63;;
65071;SDS011;51663;52.310;17.016;2022-10-16T09:44:03;7.07;;;6.47;;
65071;SDS011;51663;52.310;17.016;2022-10-16T09:47:25;6.68;;;6.18;;
65071;SDS011;51663;52.310;17.016;2022-10-16T09:50:30;6.05;;;5.60;;
65071;SDS011;51663;52.310;17.016;2022-10-16T09:53:41;6.13;;;5.63;;
65071;SDS011;51663;52.310;17.016;2022-10-16T09:56:45;5.68;;;5.28;;
65071;SDS011;51663;52.310;17.016;2022-10-16T09:59:51;6.38;;;5.38;;
65071;SDS011;51663;52.310;17.016;2022-10-16T10:02:57;6.85;;;6.32;;
65071;SDS011;51663;52.310;17.016;2022-10-16T10:05:59;5.55;;;5.15;;
65071;SDS011;51663;52.310;17.016;2022-10-16T10:09:15;7.13;;;6.45;;
65071;SDS011;51663;52.310;17.016;2022-10-16T10:12:21;6.93;;;6.43;;
65071;SDS011;51663;52.310;17.016;2022-10-16T10:15:29;6.63;;;6.13;;
65071;SDS011;51663;52.310;17.016;2022-10-16T10:18:36;6.63;;;6.22;;
65071;SDS011;51663;52.310;17.016;2022-10-16T10:21:38;6.40;;;5.97;;
65071;SDS011;51663;52.310;17.016;2022-10-16T10:24:40;6.25;;;5.78;;
65071;SDS011;51663;52.310;17.016;2022-10-16T10:31:06;8.68;;;6.50;;
65071;SDS011;51663;52.310;17.016;2022-10-16T10:37:49;6.47;;;5.88;;
65071;SDS011;51663;52.310;17.016;2022-10-16T10:51:05;6.00;;;5.60;;
65071;SDS011;51663;52.310;17.016;2022-10-16T10:57:39;5.68;;;5.28;;
65071;SDS011;51663;52.310;17.016;2022-10-16T11:04:48;7.95;;;5.63;;
65071;SDS011;51663;52.310;17.016;2022-10-16T11:08:20;6.53;;;5.50;;
65071;SDS011;51663;52.310;17.016;2022-10-16T11:15:23;5.15;;;4.85;;
65071;SDS011;51663;52.310;17.016;2022-10-16T11:18:37;4.97;;;4.57;;
65071;SDS011;51663;52.310;17.016;2022-10-16T11:22:01;5.60;;;5.20;;
65071;SDS011;51663;52.310;17.016;2022-10-16T11:25:32;4.68;;;4.28;;
65071;SDS011;51663;52.310;17.016;2022-10-16T11:28:39;4.13;;;3.83;;
65071;SDS011;51663;52.310;17.016;2022-10-16T11:31:55;10.10;;;3.88;;
65071;SDS011;51663;52.310;17.016;2022-10-16T11:35:17;4.32;;;4.03;;
65071;SDS011;51663;52.310;17.016;2022-10-16T11:41:59;5.85;;;4.20;;
65071;SDS011;51663;52.310;17.016;2022-10-16T11:45:26;4.15;;;3.85;;
65071;SDS011;51663;52.310;17.016;2022-10-16T11:52:22;4.28;;;3.97;;
65071;SDS011;51663;52.310;17.016;2022-10-16T12:01:51;4.47;;;4.10;;
65071;SDS011;51663;52.310;17.016;2022-10-16T12:08:33;4.50;;;4.10;;
65071;SDS011;51663;52.310;17.016;2022-10-16T12:11:37;3.80;;;3.58;;
65071;SDS011;51663;52.310;17.016;2022-10-16T12:14:40;3.80;;;3.60;;
65071;SDS011;51663;52.310;17.016;2022-10-16T12:18:04;3.80;;;3.60;;
65071;SDS011;51663;52.310;17.016;2022-10-16T12:21:21;3.53;;;3.33;;
65071;SDS011;51663;52.310;17.016;2022-10-16T12:24:35;3.72;;;3.45;;
65071;SDS011;51663;52.310;17.016;2022-10-16T12:27:39;5.20;;;3.90;;
65071;SDS011;51663;52.310;17.016;2022-10-16T12:30:42;11.00;;;6.32;;
65071;SDS011;51663;52.310;17.016;2022-10-16T12:33:56;2.40;;;2.30;;
65071;SDS011;51663;52.310;17.016;2022-10-16T12:37:11;2.88;;;2.10;;
65071;SDS011;51663;52.310;17.016;2022-10-16T12:49:36;3.50;;;3.03;;
65071;SDS011;51663;52.310;17.016;2022-10-16T12:52:40;2.22;;;2.03;;
65071;SDS011;51663;52.310;17.016;2022-10-16T12:55:50;2.38;;;2.28;;
65071;SDS011;51663;52.310;17.016;2022-10-16T13:12:14;2.58;;;2.47;;
65071;SDS011;51663;52.310;17.016;2022-10-16T13:19:06;3.30;;;2.53;;
65071;SDS011;51663;52.310;17.016;2022-10-16T13:22:39;3.58;;;2.83;;
65071;SDS011;51663;52.310;17.016;2022-10-16T13:29:07;2.85;;;2.65;;
65071;SDS011;51663;52.310;17.016;2022-10-16T13:32:11;7.55;;;3.00;;
65071;SDS011;51663;52.310;17.016;2022-10-16T13:35:23;2.92;;;2.70;;
65071;SDS011;51663;52.310;17.016;2022-10-16T13:38:29;3.17;;;2.58;;
65071;SDS011;51663;52.310;17.016;2022-10-16T13:41:36;2.90;;;2.70;;
65071;SDS011;51663;52.310;17.016;2022-10-16T13:44:42;2.95;;;2.55;;
65071;SDS011;51663;52.310;17.016;2022-10-16T13:47:49;5.10;;;4.25;;
65071;SDS011;51663;52.310;17.016;2022-10-16T13:54:08;4.03;;;2.65;;
65071;SDS011;51663;52.310;17.016;2022-10-16T13:57:15;2.55;;;2.42;;
65071;SDS011;51663;52.310;17.016;2022-10-16T14:00:33;3.53;;;2.72;;
65071;SDS011;51663;52.310;17.016;2022-10-16T14:03:44;3.10;;;2.80;;
65071;SDS011;51663;52.310;17.016;2022-10-16T14:06:49;3.38;;;2.50;;
65071;SDS011;51663;52.310;17.016;2022-10-16T14:09:53;8.20;;;2.40;;
65071;SDS011;51663;52.310;17.016;2022-10-16T14:12:59;2.72;;;2.50;;
65071;SDS011;51663;52.310;17.016;2022-10-16T14:16:18;5.30;;;2.90;;
65071;SDS011;51663;52.310;17.016;2022-10-16T14:19:26;5.07;;;2.80;;
65071;SDS011;51663;52.310;17.016;2022-10-16T14:25:35;5.20;;;3.20;;
65071;SDS011;51663;52.310;17.016;2022-10-16T14:28:38;10.63;;;3.95;;
65071;SDS011;51663;52.310;17.016;2022-10-16T14:31:54;3.88;;;3.47;;
65071;SDS011;51663;52.310;17.016;2022-10-16T14:35:25;4.90;;;3.00;;
65071;SDS011;51663;52.310;17.016;2022-10-16T14:38:34;4.13;;;3.17;;
65071;SDS011;51663;52.310;17.016;2022-10-16T14:41:41;3.38;;;3.17;;
65071;SDS011;51663;52.310;17.016;2022-10-16T14:44:46;3.97;;;3.67;;
65071;SDS011;51663;52.310;17.016;2022-10-16T14:47:52;4.45;;;4.05;;
65071;SDS011;51663;52.310;17.016;2022-10-16T14:50:57;5.20;;;3.20;;
65071;SDS011;51663;52.310;17.016;2022-10-16T14:54:00;4.07;;;3.40;;
65071;SDS011;51663;52.310;17.016;2022-10-16T14:57:03;3.20;;;3.00;;
65071;SDS011;51663;52.310;17.016;2022-10-16T15:00:09;7.68;;;3.60;;
65071;SDS011;51663;52.310;17.016;2022-10-16T15:03:19;9.25;;;3.88;;
65071;SDS011;51663;52.310;17.016;2022-10-16T15:06:21;6.88;;;4.10;;
65071;SDS011;51663;52.310;17.016;2022-10-16T15:09:23;5.15;;;3.70;;
65071;SDS011;51663;52.310;17.016;2022-10-16T15:12:25;4.55;;;3.42;;
65071;SDS011;51663;52.310;17.016;2022-10-16T15:15:34;4.32;;;3.80;;
65071;SDS011;51663;52.310;17.016;2022-10-16T15:18:39;4.00;;;3.70;;
65071;SDS011;51663;52.310;17.016;2022-10-16T15:21:47;4.28;;;3.90;;
65071;SDS011;51663;52.310;17.016;2022-10-16T15:24:50;5.05;;;4.57;;
65071;SDS011;51663;52.310;17.016;2022-10-16T15:27:55;6.32;;;5.82;;
65071;SDS011;51663;52.310;17.016;2022-10-16T15:31:02;11.60;;;10.60;;
65071;SDS011;51663;52.310;17.016;2022-10-16T15:34:08;12.90;;;11.82;;
65071;SDS011;51663;52.310;17.016;2022-10-16T15:37:10;15.63;;;13.60;;
65071;SDS011;51663;52.310;17.016;2022-10-16T15:40:15;13.90;;;12.15;;
65071;SDS011;51663;52.310;17.016;2022-10-16T15:43:19;15.00;;;13.50;;
65071;SDS011;51663;52.310;17.016;2022-10-16T15:46:22;16.48;;;13.18;;
65071;SDS011;51663;52.310;17.016;2022-10-16T15:49:25;14.15;;;12.75;;
65071;SDS011;51663;52.310;17.016;2022-10-16T15:52:27;13.85;;;12.52;;
65071;SDS011;51663;52.310;17.016;2022-10-16T15:55:31;12.52;;;11.35;;
65071;SDS011;51663;52.310;17.016;2022-10-16T15:58:33;12.75;;;11.25;;
65071;SDS011;51663;52.310;17.016;2022-10-16T16:01:35;12.40;;;10.93;;
65071;SDS011;51663;52.310;17.016;2022-10-16T16:04:37;13.85;;;11.85;;
65071;SDS011;51663;52.310;17.016;2022-10-16T16:07:46;17.33;;;14.30;;
65071;SDS011;51663;52.310;17.016;2022-10-16T16:11:01;11.90;;;9.85;;
65071;SDS011;51663;52.310;17.016;2022-10-16T16:14:06;22.88;;;15.77;;
65071;SDS011;51663;52.310;17.016;2022-10-16T16:17:11;19.90;;;14.80;;
65071;SDS011;51663;52.310;17.016;2022-10-16T16:20:13;11.52;;;10.27;;
65071;SDS011;51663;52.310;17.016;2022-10-16T16:23:16;12.57;;;10.93;;
65071;SDS011;51663;52.310;17.016;2022-10-16T16:26:25;19.55;;;13.77;;
65071;SDS011;51663;52.310;17.016;2022-10-16T16:29:35;12.80;;;10.82;;
65071;SDS011;51663;52.310;17.016;2022-10-16T16:32:37;12.85;;;11.52;;
65071;SDS011;51663;52.310;17.016;2022-10-16T16:35:40;21.13;;;17.80;;
65071;SDS011;51663;52.310;17.016;2022-10-16T16:38:42;17.85;;;13.93;;
65071;SDS011;51663;52.310;17.016;2022-10-16T16:41:43;20.65;;;14.55;;
65071;SDS011;51663;52.310;17.016;2022-10-16T16:44:47;22.13;;;13.38;;
65071;SDS011;51663;52.310;17.016;2022-10-16T16:47:49;16.35;;;14.13;;
65071;SDS011;51663;52.310;17.016;2022-10-16T16:50:51;18.38;;;14.32;;
65071;SDS011;51663;52.310;17.016;2022-10-16T16:53:53;29.50;;;14.38;;
65071;SDS011;51663;52.310;17.016;2022-10-16T16:56:56;22.58;;;14.27;;
65071;SDS011;51663;52.310;17.016;2022-10-16T16:59:58;25.58;;;16.20;;
65071;SDS011;51663;52.310;17.016;2022-10-16T17:03:00;22.95;;;16.25;;
65071;SDS011;51663;52.310;17.016;2022-10-16T17:06:03;23.98;;;14.43;;
65071;SDS011;51663;52.310;17.016;2022-10-16T17:09:07;24.10;;;16.02;;
65071;SDS011;51663;52.310;17.016;2022-10-16T17:12:10;25.83;;;17.38;;
65071;SDS011;51663;52.310;17.016;2022-10-16T17:15:12;34.75;;;19.35;;
65071;SDS011;51663;52.310;17.016;2022-10-16T17:18:15;57.97;;;31.25;;
65071;SDS011;51663;52.310;17.016;2022-10-16T17:21:17;46.92;;;31.17;;
65071;SDS011;51663;52.310;17.016;2022-10-16T17:24:19;42.95;;;30.45;;
65071;SDS011;51663;52.310;17.016;2022-10-16T17:27:22;39.88;;;26.85;;
65071;SDS011;51663;52.310;17.016;2022-10-16T17:30:24;38.63;;;26.10;;
65071;SDS011;51663;52.310;17.016;2022-10-16T17:33:26;40.15;;;25.60;;
65071;SDS011;51663;52.310;17.016;2022-10-16T17:36:29;35.97;;;25.58;;
65071;SDS011;51663;52.310;17.016;2022-10-16T17:39:34;40.55;;;27.65;;
65071;SDS011;51663;52.310;17.016;2022-10-16T17:42:36;37.05;;;26.88;;
65071;SDS011;51663;52.310;17.016;2022-10-16T17:45:38;29.25;;;21.13;;
65071;SDS011;51663;52.310;17.016;2022-10-16T17:48:44;30.05;;;22.27;;
65071;SDS011;51663;52.310;17.016;2022-10-16T17:51:49;26.20;;;19.88;;
65071;SDS011;51663;52.310;17.016;2022-10-16T17:54:53;28.10;;;16.98;;
65071;SDS011;51663;52.310;17.016;2022-10-16T17:58:01;28.75;;;15.82;;
65071;SDS011;51663;52.310;17.016;2022-10-16T18:01:13;25.85;;;16.63;;
65071;SDS011;51663;52.310;17.016;2022-10-16T18:04:16;27.38;;;15.68;;
65071;SDS011;51663;52.310;17.016;2022-10-16T18:07:18;30.92;;;16.40;;
65071;SDS011;51663;52.310;17.016;2022-10-16T18:10:20;21.83;;;14.85;;
65071;SDS011;51663;52.310;17.016;2022-10-16T18:13:22;23.48;;;15.13;;
65071;SDS011;51663;52.310;17.016;2022-10-16T18:16:26;25.98;;;15.38;;
65071;SDS011;51663;52.310;17.016;2022-10-16T18:19:30;25.20;;;15.55;;
65071;SDS011;51663;52.310;17.016;2022-10-16T18:22:35;30.55;;;15.82;;
65071;SDS011;51663;52.310;17.016;2022-10-16T18:25:38;25.30;;;17.83;;
65071;SDS011;51663;52.310;17.016;2022-10-16T18:28:47;39.05;;;18.27;;
65071;SDS011;51663;52.310;17.016;2022-10-16T18:31:52;38.75;;;22.10;;
65071;SDS011;51663;52.310;17.016;2022-10-16T18:34:55;24.20;;;18.98;;
65071;SDS011;51663;52.310;17.016;2022-10-16T18:37:56;34.10;;;21.03;;
65071;SDS011;51663;52.310;17.016;2022-10-16T18:41:01;35.25;;;23.88;;
65071;SDS011;51663;52.310;17.016;2022-10-16T18:44:06;39.00;;;25.17;;
65071;SDS011;51663;52.310;17.016;2022-10-16T18:47:10;42.05;;;26.52;;
65071;SDS011;51663;52.310;17.016;2022-10-16T18:50:12;40.78;;;24.67;;
65071;SDS011;51663;52.310;17.016;2022-10-16T18:53:14;34.73;;;24.03;;
65071;SDS011;51663;52.310;17.016;2022-10-16T18:56:17;43.37;;;25.27;;
65071;SDS011;51663;52.310;17.016;2022-10-16T18:59:20;49.97;;;32.15;;
65071;SDS011;51663;52.310;17.016;2022-10-16T19:02:22;52.28;;;31.17;;
65071;SDS011;51663;52.310;17.016;2022-10-16T19:05:24;41.67;;;26.57;;
65071;SDS011;51663;52.310;17.016;2022-10-16T19:08:27;35.43;;;25.53;;
65071;SDS011;51663;52.310;17.016;2022-10-16T19:11:33;32.63;;;24.67;;
65071;SDS011;51663;52.310;17.016;2022-10-16T19:14:41;42.73;;;28.90;;
65071;SDS011;51663;52.310;17.016;2022-10-16T19:17:46;40.40;;;25.27;;
65071;SDS011;51663;52.310;17.016;2022-10-16T19:20:48;38.50;;;24.87;;
65071;SDS011;51663;52.310;17.016;2022-10-16T19:23:54;44.67;;;25.87;;
65071;SDS011;51663;52.310;17.016;2022-10-16T19:27:00;42.72;;;29.25;;
65071;SDS011;51663;52.310;17.016;2022-10-16T19:30:03;57.40;;;34.67;;
65071;SDS011;51663;52.310;17.016;2022-10-16T19:33:05;45.73;;;26.60;;
65071;SDS011;51663;52.310;17.016;2022-10-16T19:39:14;43.27;;;26.50;;
65071;SDS011;51663;52.310;17.016;2022-10-16T19:42:18;38.37;;;25.50;;
65071;SDS011;51663;52.310;17.016;2022-10-16T19:45:20;36.43;;;25.10;;
65071;SDS011;51663;52.310;17.016;2022-10-16T19:48:23;40.20;;;25.37;;
65071;SDS011;51663;52.310;17.016;2022-10-16T19:51:30;43.70;;;25.50;;